General Viamonte, Argentina
Current Conditions -  °F | °C
As of 12:00 PM on Monday 22 Dec 2014 (Local Time) from SAOC Reporting Station
Clear Clear  
Wind Chill: 66°   Ceiling: Unl
Heat Index: 66°   Visibility: 6mi
Dew Point: 27°   Wind: 36mph
Humidity: 23%   Direction: 190°S
Pressure: 30.18"   Gusts: 2mph
Location:  33.81°S, 62.97°W
Report Text: SAOC 221500Z 19031G02KT CAVOK 19/M03 Q1022
Loading
Personal Weather Stations






























Interactive Weather Map New forecast layout! Learn more

10-Day Weather Forecast

Advertisements
Track Severe Weather on mobile